createdAt,value
2022-09-17T00:02:00.627Z,98048.19
2022-09-17T00:04:04.382Z,98045.72
2022-09-17T00:06:09.209Z,98048.75
2022-09-17T00:08:15.066Z,98037.25
2022-09-17T00:10:17.251Z,98036.75
2022-09-17T00:12:18.993Z,98041.69
2022-09-17T00:14:20.648Z,98044.72
2022-09-17T00:16:34.652Z,98038.72
2022-09-17T00:18:40.695Z,98041.75
2022-09-17T00:20:45.194Z,98041.22
2022-09-17T00:22:46.930Z,98047.00
2022-09-17T00:24:48.402Z,98050.84
2022-09-17T00:26:50.345Z,98041.28
2022-09-17T00:28:59.033Z,98043.50
2022-09-17T00:31:00.725Z,98039.09
2022-09-17T00:33:02.423Z,98039.41
2022-09-17T00:35:04.432Z,98042.47
2022-09-17T00:37:05.989Z,98036.41
2022-09-17T00:39:10.670Z,98040.00
2022-09-17T00:41:14.790Z,98025.75
2022-09-17T00:43:34.104Z,98024.41
2022-09-17T00:45:36.161Z,98031.81
2022-09-17T00:47:42.422Z,98030.97
2022-09-17T00:49:44.838Z,98028.53
2022-09-17T00:52:00.325Z,98026.09
2022-09-17T00:54:07.114Z,98022.81
2022-09-17T00:56:19.375Z,98022.81
2022-09-17T00:58:22.729Z,98016.81
2022-09-17T01:00:25.166Z,98028.06
2022-09-17T01:02:27.104Z,98026.44
2022-09-17T01:04:28.845Z,98035.78
2022-09-17T01:06:48.527Z,98043.47
2022-09-17T01:09:15.223Z,98050.34
2022-09-17T01:11:27.190Z,98060.78
2022-09-17T01:13:40.751Z,98063.00
2022-09-17T01:15:55.247Z,98071.53
2022-09-17T01:18:05.094Z,98064.41
2022-09-17T01:20:12.567Z,98072.63
2022-09-17T01:22:33.891Z,98080.34
2022-09-17T01:25:06.783Z,98079.50
2022-09-17T01:27:56.468Z,98075.94
2022-09-17T01:30:26.791Z,98080.91
2022-09-17T01:32:53.430Z,98074.59
2022-09-17T01:35:15.408Z,98086.09
2022-09-17T01:37:34.663Z,98091.56
2022-09-17T01:40:19.805Z,98091.56
2022-09-17T01:42:32.364Z,98076.78
2022-09-17T01:44:52.728Z,98080.34
2022-09-17T01:47:05.162Z,98087.44
2022-09-17T01:49:12.598Z,98085.50
2022-09-17T01:51:24.472Z,98079.22
2022-09-17T01:53:34.139Z,98076.19
2022-09-17T01:55:40.504Z,98075.91
2022-09-17T01:58:00.347Z,98080.56
2022-09-17T02:00:13.853Z,98073.97
2022-09-17T02:02:24.185Z,98071.75
2022-09-17T02:04:34.712Z,98062.72
2022-09-17T02:06:40.537Z,98062.72
2022-09-17T02:08:49.309Z,98067.09
2022-09-17T02:11:07.642Z,98070.66
2022-09-17T02:13:18.403Z,98074.50
2022-09-17T02:15:25.597Z,98079.47
2022-09-17T02:17:35.265Z,98082.22
2022-09-17T02:19:40.623Z,98077.81
2022-09-17T02:22:00.093Z,98072.63
2022-09-17T02:24:09.937Z,98080.34
2022-09-17T02:26:16.170Z,98077.59
2022-09-17T02:28:27.353Z,98066.88
2022-09-17T02:30:29.929Z,98066.09
2022-09-17T02:32:31.617Z,98068.00
2022-09-17T02:34:34.706Z,98069.94
2022-09-17T02:36:36.295Z,98067.50
2022-09-17T02:38:41.444Z,98062.81
2022-09-17T02:40:50.331Z,98055.69
2022-09-17T02:43:12.737Z,98062.81
2022-09-17T02:45:46.498Z,98045.81
2022-09-17T02:48:08.579Z,98045.31
2022-09-17T02:50:33.482Z,98043.09
2022-09-17T02:53:00.729Z,98040.34
2022-09-17T02:55:29.132Z,98036.56
2022-09-17T02:58:01.937Z,98037.06
2022-09-17T03:00:15.030Z,98027.19
2022-09-17T03:02:22.716Z,98028.03
2022-09-17T03:04:27.526Z,98028.84
2022-09-17T03:06:29.774Z,98025.28
2022-09-17T03:08:38.158Z,98028.03
2022-09-17T03:10:40.255Z,98023.38
2022-09-17T03:12:42.008Z,98026.63
2022-09-17T03:14:43.839Z,98025.00
2022-09-17T03:16:45.412Z,98024.19
2022-09-17T03:18:47.053Z,98023.38
2022-09-17T03:20:54.430Z,98023.38
2022-09-17T03:22:56.095Z,98032.13
2022-09-17T03:24:57.755Z,98030.50
2022-09-17T03:26:59.432Z,98030.50
2022-09-17T03:29:01.846Z,98031.59
2022-09-17T03:31:04.220Z,98032.69
2022-09-17T03:33:06.276Z,98033.81
2022-09-17T03:35:08.322Z,98035.44
2022-09-17T03:37:09.970Z,98032.69
2022-09-17T03:39:11.959Z,98037.06
2022-09-17T03:41:13.685Z,98027.19
2022-09-17T03:43:15.133Z,98030.25
2022-09-17T03:45:16.907Z,98032.69
2022-09-17T03:47:18.412Z,98027.19
2022-09-17T03:49:20.035Z,98032.69
2022-09-17T03:51:21.741Z,98028.03
2022-09-17T03:53:23.674Z,98035.44
2022-09-17T03:55:27.439Z,98027.50
2022-09-17T03:57:29.019Z,98033.50
2022-09-17T03:59:31.637Z,98039.81
2022-09-17T04:01:33.393Z,98029.66
2022-09-17T04:03:34.953Z,98033.25
2022-09-17T04:05:36.620Z,98034.84
2022-09-17T04:07:41.102Z,98036.50
2022-09-17T04:09:42.697Z,98034.59
2022-09-17T04:11:47.485Z,98033.47
2022-09-17T04:13:49.364Z,98028.50
2022-09-17T04:15:52.386Z,98032.06
2022-09-17T04:17:58.097Z,98029.31
2022-09-17T04:19:59.967Z,98029.31
2022-09-17T04:22:01.464Z,98030.97
2022-09-17T04:24:03.051Z,98025.50
2022-09-17T04:26:04.881Z,98033.41
2022-09-17T04:28:08.295Z,98032.59
2022-09-17T04:30:12.923Z,98030.41
2022-09-17T04:32:15.929Z,98038.06
2022-09-17T04:34:17.399Z,98023.25
2022-09-17T04:36:19.430Z,98033.16
2022-09-17T04:38:23.610Z,98036.09
2022-09-17T04:40:26.659Z,98037.22
2022-09-17T04:42:28.237Z,98033.38
2022-09-17T04:44:32.768Z,98037.75
2022-09-17T04:46:34.398Z,98045.69
2022-09-17T04:48:36.018Z,98034.72
2022-09-17T04:50:37.770Z,98041.84
2022-09-17T04:52:43.620Z,98047.03
2022-09-17T04:54:46.604Z,98052.81
2022-09-17T04:56:48.322Z,98050.06
2022-09-17T04:58:49.779Z,98055.25
2022-09-17T05:00:52.628Z,98045.94
2022-09-17T05:02:57.622Z,98052.25
2022-09-17T05:04:59.866Z,98052.25
2022-09-17T05:07:01.452Z,98050.59
2022-09-17T05:09:03.194Z,98057.72
2022-09-17T05:11:05.572Z,98045.63
2022-09-17T05:13:07.166Z,98054.97
2022-09-17T05:15:08.983Z,98056.59
2022-09-17T05:17:15.004Z,98059.34
2022-09-17T05:19:16.598Z,98061.81
2022-09-17T05:21:24.395Z,98061.81
2022-09-17T05:23:25.933Z,98068.09
2022-09-17T05:25:27.682Z,98067.31
2022-09-17T05:27:32.512Z,98073.59
2022-09-17T05:29:34.071Z,98068.41
2022-09-17T05:31:35.869Z,98071.97
2022-09-17T05:33:38.699Z,98071.97
2022-09-17T05:35:44.690Z,98069.22
2022-09-17T05:37:46.349Z,98071.97
2022-09-17T05:39:47.948Z,98064.84
2022-09-17T05:41:49.364Z,98070.63
2022-09-17T05:43:51.417Z,98059.91
2022-09-17T05:45:55.589Z,98058.31
2022-09-17T05:47:58.484Z,98061.03
2022-09-17T05:50:00.838Z,98059.13
2022-09-17T05:52:05.604Z,98060.53
2022-09-17T05:54:07.780Z,98060.53
2022-09-17T05:56:09.344Z,98065.19
2022-09-17T05:58:19.039Z,98067.09
2022-09-17T06:00:20.693Z,98061.91
2022-09-17T06:02:30.998Z,98059.97
2022-09-17T06:04:34.846Z,98059.44
2022-09-17T06:06:39.027Z,98064.94
2022-09-17T06:08:44.469Z,98064.66
2022-09-17T06:10:46.228Z,98059.44
2022-09-17T06:12:47.811Z,98056.69
2022-09-17T06:14:49.516Z,98055.88
2022-09-17T06:16:51.390Z,98057.53
2022-09-17T06:18:54.422Z,98059.44
2022-09-17T06:21:00.866Z,98054.25
2022-09-17T06:23:02.371Z,98057.00
2022-09-17T06:25:04.496Z,98063.31
2022-09-17T06:27:06.223Z,98057.00
2022-09-17T06:29:07.876Z,98061.66
2022-09-17T06:31:11.227Z,98068.78
2022-09-17T06:33:12.915Z,98076.47
2022-09-17T06:35:14.564Z,98078.13
2022-09-17T06:37:16.688Z,98085.25
2022-09-17T06:39:18.309Z,98086.03
2022-09-17T06:41:20.103Z,98084.94
2022-09-17T06:43:27.167Z,98086.88
2022-09-17T06:45:29.227Z,98085.25
2022-09-17T06:47:33.811Z,98091.53
2022-09-17T06:49:36.546Z,98094.28
2022-09-17T06:51:40.429Z,98092.34
2022-09-17T06:53:42.161Z,98097.84
2022-09-17T06:55:43.859Z,98096.44
2022-09-17T06:57:48.605Z,98108.25
2022-09-17T06:59:50.885Z,98109.88
2022-09-17T07:01:52.755Z,98104.94
2022-09-17T07:03:57.114Z,98110.13
2022-09-17T07:05:59.675Z,98109.84
2022-09-17T07:08:05.371Z,98110.88
2022-09-17T07:10:07.798Z,98112.53
2022-09-17T07:12:09.582Z,98110.59
2022-09-17T07:14:11.564Z,98113.06
2022-09-17T07:16:13.491Z,98115.50
2022-09-17T07:18:17.130Z,98114.13
2022-09-17T07:20:18.879Z,98118.19
2022-09-17T07:22:20.533Z,98114.38
2022-09-17T07:24:22.344Z,98122.28
2022-09-17T07:26:23.976Z,98122.81
2022-09-17T07:28:27.156Z,98124.16
2022-09-17T07:30:29.352Z,98127.47
2022-09-17T07:32:31.510Z,98129.09
2022-09-17T07:34:33.671Z,98127.69
2022-09-17T07:36:35.453Z,98137.28
2022-09-17T07:38:37.048Z,98128.75
2022-09-17T07:40:38.759Z,98126.53
2022-09-17T07:42:40.773Z,98127.06
2022-09-17T07:44:42.395Z,98142.97
2022-09-17T07:46:44.053Z,98136.34
2022-09-17T07:48:46.902Z,98146.75
2022-09-17T07:50:48.698Z,98149.22
2022-09-17T07:52:50.907Z,98144.25
2022-09-17T07:54:52.752Z,98147.22
2022-09-17T07:56:54.529Z,98153.25
2022-09-17T07:58:56.393Z,98163.66
2022-09-17T08:01:09.862Z,98160.09
2022-09-17T08:03:11.491Z,98159.50
2022-09-17T08:05:13.708Z,98158.09
2022-09-17T08:07:17.076Z,98169.34
2022-09-17T08:09:20.657Z,98173.44
2022-09-17T08:11:51.638Z,98174.25
2022-09-17T08:13:51.243Z,98173.13
2022-09-17T08:15:52.854Z,98176.41
2022-09-17T08:17:54.923Z,98190.38
2022-09-17T08:19:57.363Z,98173.63
2022-09-17T08:22:00.267Z,98182.06
2022-09-17T08:24:02.535Z,98184.56
2022-09-17T08:26:07.162Z,98176.84
2022-09-17T08:28:09.159Z,98167.19
2022-09-17T08:30:10.927Z,98173.75
2022-09-17T08:32:12.634Z,98180.03
2022-09-17T08:34:14.401Z,98179.44
2022-09-17T08:36:17.982Z,98181.31
2022-09-17T08:38:20.995Z,98183.47
2022-09-17T08:40:23.274Z,98187.25
2022-09-17T08:42:37.403Z,98194.09
2022-09-17T08:44:42.608Z,98196.78
2022-09-17T08:46:50.780Z,98193.47
2022-09-17T08:49:20.240Z,98196.97
2022-09-17T08:51:55.545Z,98193.84
2022-09-17T08:54:17.819Z,98198.50
2022-09-17T08:56:21.587Z,98206.69
2022-09-17T08:58:46.232Z,98198.38
2022-09-17T09:00:50.539Z,98203.50
2022-09-17T09:03:13.887Z,98200.66
2022-09-17T09:05:22.907Z,98197.84
2022-09-17T09:07:32.084Z,98207.69
2022-09-17T09:09:43.855Z,98190.28
2022-09-17T09:11:48.260Z,98186.31
2022-09-17T09:13:55.392Z,98191.75
2022-09-17T09:16:02.427Z,98195.56
2022-09-17T09:18:19.749Z,98189.47
2022-09-17T09:20:48.209Z,98195.47
2022-09-17T09:22:52.483Z,98197.06
2022-09-17T09:25:14.357Z,98195.88
2022-09-17T09:27:18.815Z,98193.56
2022-09-17T09:29:42.282Z,98190.63
2022-09-17T09:32:16.530Z,98188.53
2022-09-17T09:34:19.596Z,98193.59
2022-09-17T09:36:22.168Z,98196.16
2022-09-17T09:38:43.535Z,98195.34
2022-09-17T09:40:51.410Z,98203.66
2022-09-17T09:42:55.512Z,98194.88
2022-09-17T09:45:04.781Z,98197.19
2022-09-17T09:47:09.952Z,98191.66
2022-09-17T09:49:29.824Z,98201.88
2022-09-17T09:51:58.984Z,98192.47
2022-09-17T09:54:29.517Z,98198.78
2022-09-17T09:56:50.960Z,98198.78
2022-09-17T09:58:52.516Z,98188.84
2022-09-17T10:00:54.094Z,98181.66
2022-09-17T10:03:26.347Z,98175.78
2022-09-17T10:05:28.568Z,98171.81
2022-09-17T10:07:30.401Z,98176.78
2022-09-17T10:09:44.231Z,98174.56
2022-09-17T10:12:02.598Z,98185.69
2022-09-17T10:14:23.179Z,98182.13
2022-09-17T10:16:27.723Z,98180.88
2022-09-17T10:18:29.327Z,98184.03
2022-09-17T10:20:31.044Z,98190.56
2022-09-17T10:22:35.225Z,98192.06
2022-09-17T10:24:39.289Z,98191.13
2022-09-17T10:26:41.038Z,98187.69
2022-09-17T10:28:57.315Z,98200.91
2022-09-17T10:31:08.944Z,98186.78
2022-09-17T10:33:24.950Z,98191.16
2022-09-17T10:35:33.987Z,98193.63
2022-09-17T10:37:47.525Z,98185.31
2022-09-17T10:39:49.268Z,98189.69
2022-09-17T10:41:59.621Z,98190.03
2022-09-17T10:44:17.725Z,98183.34
2022-09-17T10:46:29.389Z,98190.19
2022-09-17T10:48:38.702Z,98184.22
2022-09-17T10:50:40.382Z,98176.75
2022-09-17T10:52:48.764Z,98172.22
2022-09-17T10:55:06.255Z,98172.75
2022-09-17T10:57:20.513Z,98175.22
2022-09-17T11:00:04.578Z,98173.31
2022-09-17T11:02:12.146Z,98172.84
2022-09-17T11:05:00.245Z,98171.69
2022-09-17T11:07:34.651Z,98168.28
2022-09-17T11:09:56.960Z,98158.50
2022-09-17T11:12:19.529Z,98150.38
2022-09-17T11:14:39.237Z,98145.81
2022-09-17T11:16:57.737Z,98145.66
2022-09-17T11:19:11.831Z,98144.34
2022-09-17T11:21:22.236Z,98145.00
2022-09-17T11:23:54.080Z,98146.31
2022-09-17T11:26:00.889Z,98139.31
2022-09-17T11:28:23.269Z,98133.13
2022-09-17T11:30:29.530Z,98139.97
2022-09-17T11:32:46.310Z,98145.16
2022-09-17T11:35:03.402Z,98136.38
2022-09-17T11:37:12.331Z,98145.31
2022-09-17T11:39:24.706Z,98146.44
2022-09-17T11:41:40.336Z,98137.00
2022-09-17T11:44:23.370Z,98129.66
2022-09-17T11:46:30.697Z,98131.31
2022-09-17T11:49:03.877Z,98130.16
2022-09-17T11:51:29.093Z,98127.16
2022-09-17T11:53:37.901Z,98121.47
2022-09-17T11:56:02.930Z,98116.03
2022-09-17T11:58:31.213Z,98119.44
2022-09-17T12:00:40.614Z,98116.09
2022-09-17T12:02:52.773Z,98112.75
2022-09-17T12:05:10.134Z,98117.25
2022-09-17T12:07:36.010Z,98120.63
2022-09-17T12:09:41.407Z,98123.94
2022-09-17T12:11:53.464Z,98116.38
2022-09-17T12:14:04.504Z,98116.94
2022-09-17T12:16:12.362Z,98112.25
2022-09-17T12:18:38.625Z,98112.31
2022-09-17T12:20:45.418Z,98116.78
2022-09-17T12:22:50.865Z,98102.94
2022-09-17T12:24:53.887Z,98101.72
2022-09-17T12:27:09.670Z,98109.94
2022-09-17T12:29:24.289Z,98105.66
2022-09-17T12:31:53.662Z,98108.78
2022-09-17T12:34:26.002Z,98103.91
2022-09-17T12:36:40.284Z,98104.13
2022-09-17T12:39:29.959Z,98092.41
2022-09-17T12:41:47.823Z,98090.06
2022-09-17T12:44:30.657Z,98092.94
2022-09-17T12:47:09.352Z,98098.09
2022-09-17T12:49:26.850Z,98103.25
2022-09-17T12:51:52.108Z,98110.34
2022-09-17T12:54:10.789Z,98141.00
2022-09-17T12:56:45.698Z,98150.38
2022-09-17T12:59:02.217Z,98159.44
2022-09-17T13:01:07.148Z,98130.44
2022-09-17T13:03:11.427Z,98132.94
2022-09-17T13:05:13.150Z,98145.09
2022-09-17T13:07:26.896Z,98137.97
2022-09-17T13:09:28.560Z,98148.47
2022-09-17T13:12:03.653Z,98140.22
2022-09-17T13:14:25.379Z,98138.59
2022-09-17T13:16:43.823Z,98133.56
2022-09-17T13:19:16.634Z,98137.31
2022-09-17T13:21:34.568Z,98126.75
2022-09-17T13:23:41.277Z,98124.31
2022-09-17T13:25:52.946Z,98123.00
2022-09-17T13:28:09.858Z,98121.38
2022-09-17T13:30:13.288Z,98118.59
2022-09-17T13:32:33.208Z,98118.06
2022-09-17T13:34:37.794Z,98117.06
2022-09-17T13:36:56.498Z,98116.09
2022-09-17T13:38:59.043Z,98111.88
2022-09-17T13:41:21.747Z,98119.06
2022-09-17T13:43:27.390Z,98114.97
2022-09-17T13:45:29.120Z,98104.91
2022-09-17T13:47:36.617Z,98108.84
2022-09-17T13:49:45.761Z,98100.88
2022-09-17T13:51:49.884Z,98107.19
2022-09-17T13:53:54.514Z,98104.44
2022-09-17T13:56:01.997Z,98106.41
2022-09-17T13:58:32.885Z,98106.38
2022-09-17T14:00:56.532Z,98103.59
2022-09-17T14:03:48.487Z,98100.00
2022-09-17T14:05:50.089Z,98104.72
2022-09-17T14:07:53.055Z,98095.44
2022-09-17T14:09:54.687Z,98099.97
2022-09-17T14:11:56.233Z,98092.13
2022-09-17T14:14:11.661Z,98092.31
2022-09-17T14:16:42.491Z,98084.50
2022-09-17T14:18:48.552Z,98085.78
2022-09-17T14:20:50.138Z,98080.72
2022-09-17T14:22:56.685Z,98078.44
2022-09-17T14:24:58.579Z,98076.47
2022-09-17T14:27:17.710Z,98068.50
2022-09-17T14:29:43.618Z,98072.09
2022-09-17T14:31:47.547Z,98068.97
2022-09-17T14:33:49.263Z,98067.03
2022-09-17T14:35:55.865Z,98057.91
2022-09-17T14:38:07.867Z,98062.47
2022-09-17T14:40:18.610Z,98060.84
2022-09-17T14:42:35.624Z,98061.81
2022-09-17T14:44:37.406Z,98060.84
2022-09-17T14:46:43.356Z,98050.09
2022-09-17T14:48:48.122Z,98056.63
2022-09-17T14:50:52.701Z,98058.09
2022-09-17T14:52:54.575Z,98057.63
2022-09-17T14:55:40.643Z,98054.22
2022-09-17T14:57:44.843Z,98059.59
2022-09-17T14:59:59.688Z,98051.94
2022-09-17T15:02:01.385Z,98060.94
2022-09-17T15:04:22.840Z,98063.53
2022-09-17T15:06:27.412Z,98051.97
2022-09-17T15:08:30.223Z,98052.28
2022-09-17T15:10:32.663Z,98047.41
2022-09-17T15:12:35.496Z,98053.44
2022-09-17T15:14:41.183Z,98047.41
2022-09-17T15:16:50.002Z,98055.72
2022-09-17T15:18:57.570Z,98055.72
2022-09-17T15:21:01.529Z,98054.09
2022-09-17T15:23:25.858Z,98061.91
2022-09-17T15:25:31.273Z,98061.09
2022-09-17T15:27:45.050Z,98070.53
2022-09-17T15:29:54.700Z,98066.47
2022-09-17T15:32:04.541Z,98067.94
2022-09-17T15:34:06.147Z,98068.28
2022-09-17T15:36:16.085Z,98066.16
2022-09-17T15:38:23.668Z,98075.94
2022-09-17T15:40:39.724Z,98076.91
2022-09-17T15:42:50.544Z,98083.94
2022-09-17T15:44:52.355Z,98082.28
2022-09-17T15:46:56.850Z,98086.03
2022-09-17T15:49:01.059Z,98074.00
2022-09-17T15:51:04.995Z,98082.13
2022-09-17T15:53:09.286Z,98075.09
2022-09-17T15:55:31.205Z,98082.75
2022-09-17T15:57:35.855Z,98065.16
2022-09-17T15:59:37.727Z,98058.97
2022-09-17T16:01:45.858Z,98074.13
2022-09-17T16:03:58.617Z,98074.28
2022-09-17T16:06:04.060Z,98079.63
2022-09-17T16:08:18.939Z,98073.13
2022-09-17T16:10:20.534Z,98078.81
2022-09-17T16:12:27.234Z,98088.09
2022-09-17T16:14:31.544Z,98079.13
2022-09-17T16:16:35.416Z,98080.88
2022-09-17T16:18:36.939Z,98086.56
2022-09-17T16:20:38.429Z,98084.75
2022-09-17T16:22:40.181Z,98107.84
2022-09-17T16:24:41.820Z,98153.69
2022-09-17T16:26:43.652Z,98146.97
2022-09-17T16:28:48.924Z,98134.09
2022-09-17T16:30:50.839Z,98128.69
2022-09-17T16:32:53.703Z,98124.44
2022-09-17T16:34:55.369Z,98126.50
2022-09-17T16:36:56.977Z,98131.34
2022-09-17T16:38:59.163Z,98128.72
2022-09-17T16:41:05.404Z,98129.50
2022-09-17T16:43:08.599Z,98127.19
2022-09-17T16:45:10.828Z,98122.13
2022-09-17T16:47:12.280Z,98126.13
2022-09-17T16:49:17.356Z,98130.16
2022-09-17T16:51:22.251Z,98128.97
2022-09-17T16:53:23.958Z,98132.97
2022-09-17T16:55:25.764Z,98144.13
2022-09-17T16:57:29.417Z,98137.09
2022-09-17T16:59:31.101Z,98147.72
2022-09-17T17:01:32.646Z,98137.94
2022-09-17T17:03:34.237Z,98134.50
2022-09-17T17:05:36.948Z,98134.91
2022-09-17T17:07:38.468Z,98133.09
2022-09-17T17:09:40.292Z,98126.34
2022-09-17T17:11:41.938Z,98135.88
2022-09-17T17:13:44.230Z,98134.34
2022-09-17T17:15:46.163Z,98144.69
2022-09-17T17:17:48.677Z,98140.38
2022-09-17T17:19:50.530Z,98146.84
2022-09-17T17:21:53.099Z,98142.56
2022-09-17T17:23:55.147Z,98145.72
2022-09-17T17:25:57.023Z,98139.81
2022-09-17T17:27:59.030Z,98149.28
2022-09-17T17:30:06.462Z,98151.34
2022-09-17T17:32:08.481Z,98145.09
2022-09-17T17:34:13.101Z,98154.56
2022-09-17T17:36:14.641Z,98161.00
2022-09-17T17:38:19.337Z,98166.09
2022-09-17T17:40:21.210Z,98153.25
2022-09-17T17:42:22.911Z,98172.63
2022-09-17T17:44:24.473Z,98168.00
2022-09-17T17:46:26.240Z,98168.41
2022-09-17T17:48:28.567Z,98168.50
2022-09-17T17:50:30.183Z,98173.78
2022-09-17T17:52:31.946Z,98172.25
2022-09-17T17:54:33.942Z,98182.53
2022-09-17T17:56:35.666Z,98182.28
2022-09-17T17:58:37.671Z,98189.03
2022-09-17T18:00:41.340Z,98188.56
2022-09-17T18:02:43.339Z,98187.53
2022-09-17T18:04:45.115Z,98188.44
2022-09-17T18:06:49.160Z,98194.84
2022-09-17T18:08:50.817Z,98197.66
2022-09-17T18:11:04.059Z,98200.47
2022-09-17T18:13:05.587Z,98196.16
2022-09-17T18:15:07.525Z,98202.25
2022-09-17T18:17:09.208Z,98208.13
2022-09-17T18:19:13.561Z,98202.38
2022-09-17T18:21:20.782Z,98206.84
2022-09-17T18:23:22.664Z,98210.19
2022-09-17T18:25:24.455Z,98206.41
2022-09-17T18:27:25.976Z,98208.91
2022-09-17T18:29:29.027Z,98209.81
2022-09-17T18:31:36.226Z,98203.25
2022-09-17T18:33:40.353Z,98215.97
2022-09-17T18:35:42.418Z,98213.78
2022-09-17T18:37:44.258Z,98214.38
2022-09-17T18:40:01.365Z,98215.78
2022-09-17T18:42:03.473Z,98224.91
2022-09-17T18:44:05.185Z,98217.25
2022-09-17T18:46:07.027Z,98219.78
2022-09-17T18:48:09.212Z,98227.50
2022-09-17T18:50:10.911Z,98220.94
2022-09-17T18:52:12.713Z,98221.53
2022-09-17T18:54:14.381Z,98222.91
2022-09-17T18:56:33.193Z,98233.69
2022-09-17T18:58:34.879Z,98240.59
2022-09-17T19:00:40.473Z,98228.53
2022-09-17T19:02:42.143Z,98236.25
2022-09-17T19:04:43.803Z,98246.19
2022-09-17T19:06:45.807Z,98242.94
2022-09-17T19:08:47.895Z,98253.38
2022-09-17T19:10:52.820Z,98251.50
2022-09-17T19:12:54.440Z,98249.06
2022-09-17T19:14:55.956Z,98252.34
2022-09-17T19:16:57.558Z,98252.91
2022-09-17T19:18:59.978Z,98246.06
2022-09-17T19:21:17.068Z,98247.78
2022-09-17T19:23:18.526Z,98245.28
2022-09-17T19:25:20.799Z,98250.25
2022-09-17T19:27:22.777Z,98237.09
2022-09-17T19:29:24.513Z,98244.81
2022-09-17T19:31:26.930Z,98241.53
2022-09-17T19:33:29.304Z,98255.56
2022-09-17T19:35:33.600Z,98249.84
2022-09-17T19:37:35.344Z,98249.31
2022-09-17T19:39:48.289Z,98245.47
2022-09-17T19:41:50.087Z,98249.34
2022-09-17T19:43:55.511Z,98256.50
2022-09-17T19:46:15.923Z,98248.84
2022-09-17T19:48:25.155Z,98245.56
2022-09-17T19:50:30.241Z,98254.94
2022-09-17T19:52:31.691Z,98248.88
2022-09-17T19:54:36.641Z,98256.59
2022-09-17T19:56:56.277Z,98260.72
2022-09-17T19:59:08.233Z,98263.78
2022-09-17T20:01:25.235Z,98260.50
2022-09-17T20:03:29.764Z,98261.59
2022-09-17T20:05:37.945Z,98260.22
2022-09-17T20:07:39.472Z,98257.78
2022-09-17T20:09:40.952Z,98266.28
2022-09-17T20:14:19.692Z,98260.56
2022-09-17T20:16:22.344Z,98264.41
2022-09-17T20:18:26.267Z,98267.44
2022-09-17T20:20:34.610Z,98275.13
2022-09-17T20:22:37.867Z,98269.94
2022-09-17T20:24:39.739Z,98277.34
2022-09-17T20:26:58.976Z,98273.25
2022-09-17T20:29:19.485Z,98277.09
2022-09-17T20:34:10.877Z,98275.19
2022-09-17T20:39:21.371Z,98271.09
2022-09-17T20:41:43.195Z,98270.84
2022-09-17T20:43:49.779Z,98270.03
2022-09-17T20:45:55.488Z,98268.38
2022-09-17T20:47:57.647Z,98281.31
2022-09-17T20:50:26.220Z,98280.75
2022-09-17T20:52:29.659Z,98280.22
2022-09-17T20:54:31.178Z,98293.09
2022-09-17T20:56:37.874Z,98293.38
2022-09-17T20:58:48.495Z,98293.69
2022-09-17T21:00:50.511Z,98302.19
2022-09-17T21:02:54.321Z,98296.97
2022-09-17T21:04:55.926Z,98305.22
2022-09-17T21:07:00.032Z,98302.72
2022-09-17T21:09:04.376Z,98301.94
2022-09-17T21:11:05.968Z,98309.59
2022-09-17T21:13:08.123Z,98301.66
2022-09-17T21:15:14.052Z,98307.44
2022-09-17T21:17:15.722Z,98297.56
2022-09-17T21:19:17.513Z,98301.41
2022-09-17T21:21:19.264Z,98306.34
2022-09-17T21:23:33.640Z,98306.66
2022-09-17T21:25:35.575Z,98299.81
2022-09-17T21:27:38.134Z,98309.94
2022-09-17T21:29:40.986Z,98309.94
2022-09-17T21:31:43.006Z,98312.94
2022-09-17T21:33:46.015Z,98323.34
2022-09-17T21:35:51.162Z,98319.00
2022-09-17T21:37:52.787Z,98319.25
2022-09-17T21:39:54.723Z,98320.63
2022-09-17T21:42:22.962Z,98322.84
2022-09-17T21:44:27.428Z,98327.50
2022-09-17T21:46:37.448Z,98318.72
2022-09-17T21:48:45.281Z,98325.31
2022-09-17T21:50:46.998Z,98320.13
2022-09-17T21:52:48.575Z,98321.19
2022-09-17T21:54:51.477Z,98312.19
2022-09-17T21:57:02.196Z,98315.19
2022-09-17T21:59:06.306Z,98323.69
2022-09-17T22:01:19.813Z,98320.44
2022-09-17T22:03:21.854Z,98330.56
2022-09-17T22:05:23.488Z,98328.91
2022-09-17T22:07:25.964Z,98327.00
2022-09-17T22:09:29.780Z,98326.47
2022-09-17T22:11:36.430Z,98324.81
2022-09-17T22:13:38.529Z,98324.81
2022-09-17T22:15:40.226Z,98330.59
2022-09-17T22:17:42.801Z,98333.84
2022-09-17T22:19:44.481Z,98336.88
2022-09-17T22:21:48.635Z,98338.50
2022-09-17T22:23:53.109Z,98336.06
2022-09-17T22:26:04.847Z,98332.50
2022-09-17T22:28:20.600Z,98326.19
2022-09-17T22:30:24.310Z,98345.09
2022-09-17T22:32:25.940Z,98343.47
2022-09-17T22:34:27.633Z,98338.81
2022-09-17T22:36:29.935Z,98336.59
2022-09-17T22:38:41.456Z,98343.16
2022-09-17T22:40:43.227Z,98337.69
2022-09-17T22:42:44.766Z,98342.06
2022-09-17T22:44:46.626Z,98345.66
2022-09-17T22:46:50.653Z,98331.94
2022-09-17T22:48:52.758Z,98342.91
2022-09-17T22:51:03.629Z,98336.88
2022-09-17T22:53:05.216Z,98347.84
2022-09-17T22:55:06.895Z,98335.78
2022-09-17T22:57:08.573Z,98335.78
2022-09-17T22:59:10.843Z,98341.25
2022-09-17T23:01:23.443Z,98340.44
2022-09-17T23:03:30.775Z,98340.44
2022-09-17T23:05:32.363Z,98335.78
2022-09-17T23:07:34.155Z,98338.81
2022-09-17T23:09:35.677Z,98339.63
2022-09-17T23:11:39.071Z,98338.81
2022-09-17T23:13:40.842Z,98336.06
2022-09-17T23:15:42.520Z,98332.50
2022-09-17T23:17:46.172Z,98334.41
2022-09-17T23:19:49.093Z,98336.31
2022-09-17T23:21:51.143Z,98334.69
2022-09-17T23:23:52.993Z,98333.88
2022-09-17T23:26:03.844Z,98334.97
2022-09-17T23:28:05.451Z,98340.44
2022-09-17T23:30:07.695Z,98335.78
2022-09-17T23:32:09.395Z,98341.00
2022-09-17T23:34:11.233Z,98342.09
2022-09-17T23:36:16.328Z,98339.34
2022-09-17T23:38:17.983Z,98338.81
2022-09-17T23:40:21.952Z,98338.00
2022-09-17T23:42:23.673Z,98346.75
2022-09-17T23:44:25.351Z,98339.66
2022-09-17T23:46:29.705Z,98349.50
2022-09-17T23:48:34.638Z,98351.13
2022-09-17T23:50:36.177Z,98353.06
2022-09-17T23:52:37.830Z,98345.13
2022-09-17T23:54:39.459Z,98345.13
2022-09-17T23:56:41.381Z,98353.34
2022-09-17T23:58:43.158Z,98352.53
